createdAt,value
2018-06-28T00:02:04.098Z,19.50
2018-06-28T00:04:09.734Z,19.50
2018-06-28T00:06:17.352Z,19.50
2018-06-28T00:08:24.300Z,19.40
2018-06-28T00:12:36.807Z,19.40
2018-06-28T00:14:42.221Z,19.40
2018-06-28T00:16:51.570Z,19.50
2018-06-28T00:18:55.922Z,19.50
2018-06-28T00:21:00.039Z,19.50
2018-06-28T00:23:04.559Z,19.40
2018-06-28T00:25:09.204Z,19.40
2018-06-28T00:27:15.340Z,19.40
2018-06-28T00:29:21.276Z,19.40
2018-06-28T00:31:25.301Z,19.40
2018-06-28T00:35:42.836Z,19.30
2018-06-28T00:37:47.940Z,19.30
2018-06-28T00:39:52.152Z,19.20
2018-06-28T00:41:57.612Z,19.30
2018-06-28T00:44:05.351Z,19.20
2018-06-28T00:46:13.635Z,19.30
2018-06-28T00:48:20.439Z,19.30
2018-06-28T00:50:25.450Z,19.30
2018-06-28T00:52:31.148Z,19.20
2018-06-28T00:54:41.542Z,19.20
2018-06-28T00:56:46.986Z,19.20
2018-06-28T00:58:52.147Z,19.20
2018-06-28T01:00:59.618Z,19.10
2018-06-28T01:03:04.813Z,19.10
2018-06-28T01:05:10.082Z,19.10
2018-06-28T01:07:17.002Z,19.10
2018-06-28T01:09:22.443Z,19.10
2018-06-28T01:11:26.456Z,19.10
2018-06-28T01:13:30.947Z,19.10
2018-06-28T01:18:17.965Z,19.10
2018-06-28T01:20:36.458Z,19.10
2018-06-28T01:22:46.892Z,19.10
2018-06-28T01:25:07.564Z,19.00
2018-06-28T01:27:17.360Z,19.00
2018-06-28T01:31:43.396Z,19.00
2018-06-28T01:41:50.397Z,19.00
2018-06-28T01:43:59.051Z,19.00
2018-06-28T01:46:05.033Z,19.00
2018-06-28T01:48:14.165Z,19.00
2018-06-28T01:50:28.600Z,19.00
2018-06-28T01:52:35.925Z,19.00
2018-06-28T01:54:46.775Z,19.00
2018-06-28T01:56:57.344Z,19.00
2018-06-28T01:59:07.809Z,19.00
2018-06-28T02:03:27.435Z,19.00
2018-06-28T02:05:33.108Z,19.00
2018-06-28T02:07:45.184Z,18.90
2018-06-28T02:09:56.421Z,18.90
2018-06-28T02:12:03.251Z,18.90
2018-06-28T02:14:15.351Z,18.90
2018-06-28T02:18:44.648Z,18.80
2018-06-28T02:20:56.865Z,18.80
2018-06-28T02:25:26.297Z,18.80
2018-06-28T02:27:35.003Z,18.70
2018-06-28T02:29:48.283Z,18.60
2018-06-28T02:31:59.206Z,18.70
2018-06-28T02:34:05.689Z,18.70
2018-06-28T02:36:10.292Z,18.70
2018-06-28T02:38:15.094Z,18.80
2018-06-28T02:40:22.028Z,18.70
2018-06-28T02:44:37.013Z,18.70
2018-06-28T02:46:46.436Z,18.80
2018-06-28T02:49:01.018Z,18.80
2018-06-28T02:51:07.578Z,18.80
2018-06-28T02:55:33.482Z,18.70
2018-06-28T02:57:41.660Z,18.70
2018-06-28T02:59:48.547Z,18.70
2018-06-28T03:02:00.959Z,18.70
2018-06-28T03:04:11.380Z,18.70
2018-06-28T03:18:04.756Z,18.50
2018-06-28T03:20:14.225Z,18.50
2018-06-28T03:22:25.988Z,18.60
2018-06-28T03:26:56.796Z,18.60
2018-06-28T03:29:18.457Z,18.80
2018-06-28T03:31:29.432Z,18.60
2018-06-28T03:33:42.417Z,18.50
2018-06-28T03:35:46.654Z,18.40
2018-06-28T03:37:53.886Z,18.40
2018-06-28T03:40:01.630Z,18.40
2018-06-28T03:42:07.857Z,18.40
2018-06-28T03:48:54.452Z,18.30
2018-06-28T03:51:12.207Z,18.30
2018-06-28T03:55:45.247Z,18.20
2018-06-28T03:57:53.904Z,18.20
2018-06-28T04:00:10.422Z,18.40
2018-06-28T04:05:07.977Z,18.40
2018-06-28T04:07:13.292Z,18.60
2018-06-28T04:09:18.411Z,18.70
2018-06-28T04:11:22.473Z,18.70
2018-06-28T04:13:26.534Z,18.70
2018-06-28T04:15:30.635Z,18.90
2018-06-28T04:17:34.933Z,18.90
2018-06-28T04:19:38.988Z,19.10
2018-06-28T04:21:44.776Z,19.30
2018-06-28T04:23:48.836Z,19.50
2018-06-28T04:25:53.466Z,19.60
2018-06-28T04:27:57.624Z,19.80
2018-06-28T04:32:09.339Z,20.20
2018-06-28T04:36:17.847Z,20.50
2018-06-28T04:38:22.303Z,20.60
2018-06-28T04:40:26.332Z,20.80
2018-06-28T04:42:30.743Z,20.90
2018-06-28T04:44:40.072Z,21.10
2018-06-28T04:46:44.049Z,21.30
2018-06-28T04:48:48.011Z,21.50
2018-06-28T04:50:52.412Z,21.60
2018-06-28T04:52:56.370Z,21.40
2018-06-28T04:55:00.381Z,21.30
2018-06-28T04:57:06.240Z,21.40
2018-06-28T04:59:10.381Z,21.60
2018-06-28T05:01:14.456Z,21.70
2018-06-28T05:03:20.512Z,21.80
2018-06-28T05:07:31.989Z,21.70
2018-06-28T05:09:35.984Z,21.90
2018-06-28T05:11:42.593Z,21.70
2018-06-28T05:13:46.557Z,21.90
2018-06-28T05:15:54.264Z,22.00
2018-06-28T05:17:58.296Z,21.90
2018-06-28T05:20:02.625Z,21.80
2018-06-28T05:22:07.779Z,21.80
2018-06-28T05:24:11.736Z,21.80
2018-06-28T05:26:16.330Z,21.90
2018-06-28T05:28:22.564Z,21.90
2018-06-28T05:30:30.594Z,21.90
2018-06-28T05:32:35.438Z,22.00
2018-06-28T05:34:40.216Z,22.00
2018-06-28T05:36:45.264Z,21.80
2018-06-28T05:38:49.822Z,21.80
2018-06-28T05:40:55.897Z,21.80
2018-06-28T05:43:01.870Z,22.00
2018-06-28T05:45:08.616Z,22.30
2018-06-28T05:47:22.375Z,22.50
2018-06-28T05:49:46.399Z,22.60
2018-06-28T05:51:50.594Z,22.50
2018-06-28T05:53:59.841Z,22.60
2018-06-28T05:56:04.768Z,22.60
2018-06-28T05:58:08.837Z,22.60
2018-06-28T06:00:14.290Z,22.60
2018-06-28T06:02:19.017Z,22.50
2018-06-28T06:04:23.092Z,22.50
2018-06-28T06:06:30.748Z,22.50
2018-06-28T06:08:35.346Z,22.40
2018-06-28T06:10:44.142Z,22.40
2018-06-28T06:12:52.473Z,22.50
2018-06-28T06:14:57.116Z,22.50
2018-06-28T06:17:01.019Z,22.40
2018-06-28T06:19:05.919Z,22.50
2018-06-28T06:21:11.083Z,22.60
2018-06-28T06:23:15.042Z,22.80
2018-06-28T06:25:24.153Z,22.80
2018-06-28T06:27:28.113Z,23.20
2018-06-28T06:29:32.414Z,23.30
2018-06-28T06:31:42.842Z,23.50
2018-06-28T06:33:47.127Z,23.40
2018-06-28T06:35:51.131Z,23.40
2018-06-28T06:37:59.627Z,23.50
2018-06-28T06:40:04.564Z,23.50
2018-06-28T06:42:09.576Z,23.50
2018-06-28T06:44:14.860Z,23.70
2018-06-28T06:46:19.086Z,24.00
2018-06-28T06:48:23.673Z,23.90
2018-06-28T06:52:37.465Z,24.20
2018-06-28T06:54:55.197Z,24.10
2018-06-28T06:57:03.694Z,24.20
2018-06-28T06:59:09.656Z,24.20
2018-06-28T07:01:18.735Z,24.30
2018-06-28T07:03:32.161Z,24.30
2018-06-28T07:05:36.520Z,24.50
2018-06-28T07:07:41.441Z,24.60
2018-06-28T07:09:45.409Z,24.70
2018-06-28T07:11:49.474Z,25.00
2018-06-28T07:13:54.598Z,25.10
2018-06-28T07:15:59.548Z,25.20
2018-06-28T07:18:07.898Z,25.20
2018-06-28T07:20:14.199Z,25.20
2018-06-28T07:22:18.680Z,25.30
2018-06-28T07:24:22.692Z,25.30
2018-06-28T07:26:26.879Z,25.10
2018-06-28T07:28:33.731Z,25.10
2018-06-28T07:30:37.680Z,25.30
2018-06-28T07:32:43.352Z,25.50
2018-06-28T07:34:47.822Z,25.80
2018-06-28T07:36:53.315Z,25.80
2018-06-28T07:38:58.847Z,25.60
2018-06-28T07:41:06.564Z,25.40
2018-06-28T07:43:20.211Z,25.40
2018-06-28T07:45:29.825Z,25.40
2018-06-28T07:47:41.365Z,25.40
2018-06-28T07:49:46.863Z,25.70
2018-06-28T07:52:07.262Z,26.00
2018-06-28T07:54:14.877Z,26.20
2018-06-28T07:56:27.301Z,26.50
2018-06-28T08:01:17.918Z,26.40
2018-06-28T08:03:23.435Z,26.50
2018-06-28T08:05:29.499Z,26.80
2018-06-28T08:07:44.563Z,26.70
2018-06-28T08:09:50.477Z,26.90
2018-06-28T08:11:56.210Z,26.80
2018-06-28T08:14:00.571Z,27.00
2018-06-28T08:16:05.682Z,27.10
2018-06-28T08:18:13.951Z,27.30
2018-06-28T08:20:18.359Z,27.30
2018-06-28T08:22:22.383Z,27.20
2018-06-28T08:24:30.226Z,27.00
2018-06-28T08:26:36.947Z,27.20
2018-06-28T08:28:42.198Z,27.30
2018-06-28T08:30:47.837Z,27.40
2018-06-28T08:32:52.804Z,27.30
2018-06-28T08:34:56.880Z,27.40
2018-06-28T08:37:01.749Z,27.20
2018-06-28T08:39:11.091Z,27.00
2018-06-28T08:41:26.829Z,27.00
2018-06-28T08:43:44.087Z,27.10
2018-06-28T08:45:48.889Z,27.20
2018-06-28T08:47:55.358Z,27.30
2018-06-28T08:50:03.472Z,27.30
2018-06-28T08:52:07.983Z,27.60
2018-06-28T08:54:12.733Z,27.70
2018-06-28T08:56:20.458Z,27.50
2018-06-28T08:58:27.170Z,27.70
2018-06-28T09:00:32.112Z,27.70
2018-06-28T09:02:38.390Z,27.60
2018-06-28T09:04:47.570Z,27.60
2018-06-28T09:06:53.518Z,27.70
2018-06-28T09:08:58.406Z,27.70
2018-06-28T09:11:03.598Z,27.50
2018-06-28T09:13:08.671Z,27.40
2018-06-28T09:15:14.574Z,27.50
2018-06-28T09:17:21.990Z,27.60
2018-06-28T09:19:27.852Z,27.70
2018-06-28T09:21:35.315Z,27.90
2018-06-28T09:23:44.648Z,28.10
2018-06-28T09:25:50.319Z,28.10
2018-06-28T09:27:55.347Z,28.10
2018-06-28T09:30:00.811Z,27.90
2018-06-28T09:32:08.764Z,27.90
2018-06-28T09:34:13.564Z,28.10
2018-06-28T09:36:19.079Z,28.10
2018-06-28T09:38:24.605Z,28.30
2018-06-28T09:40:29.631Z,28.60
2018-06-28T09:42:35.656Z,28.80
2018-06-28T09:44:40.335Z,28.70
2018-06-28T09:46:47.754Z,28.80
2018-06-28T09:48:54.142Z,29.00
2018-06-28T09:50:58.939Z,29.10
2018-06-28T09:53:11.419Z,29.30
2018-06-28T09:58:09.128Z,29.30
2018-06-28T10:00:27.730Z,29.20
2018-06-28T10:02:46.026Z,29.10
2018-06-28T10:04:57.419Z,28.90
2018-06-28T10:09:19.412Z,28.30
2018-06-28T10:11:23.799Z,28.20
2018-06-28T10:13:29.746Z,28.40
2018-06-28T10:15:34.481Z,28.50
2018-06-28T10:17:39.391Z,28.70
2018-06-28T10:19:45.312Z,28.90
2018-06-28T10:21:50.619Z,29.00
2018-06-28T10:24:06.416Z,28.90
2018-06-28T10:26:24.990Z,28.50
2018-06-28T10:28:35.766Z,28.40
2018-06-28T10:30:40.705Z,28.40
2018-06-28T10:32:48.863Z,28.30
2018-06-28T10:34:55.018Z,28.30
2018-06-28T10:36:59.223Z,28.30
2018-06-28T10:39:18.188Z,28.50
2018-06-28T10:41:24.715Z,28.50
2018-06-28T10:43:33.487Z,28.70
2018-06-28T10:45:42.795Z,28.60
2018-06-28T10:47:49.838Z,28.50
2018-06-28T10:49:54.906Z,28.20
2018-06-28T10:52:00.298Z,28.20
2018-06-28T10:54:08.359Z,28.50
2018-06-28T10:56:13.812Z,28.70
2018-06-28T10:58:25.286Z,28.90
2018-06-28T11:00:30.820Z,28.80
2018-06-28T11:02:36.376Z,28.80
2018-06-28T11:04:43.427Z,28.80
2018-06-28T11:06:47.870Z,28.90
2018-06-28T11:08:55.112Z,29.00
2018-06-28T11:11:00.086Z,29.10
2018-06-28T11:13:13.249Z,29.30
2018-06-28T11:15:18.275Z,29.40
2018-06-28T11:17:23.420Z,29.70
2018-06-28T11:19:31.343Z,29.50
2018-06-28T11:21:36.324Z,29.60
2018-06-28T11:23:41.062Z,30.00
2018-06-28T11:25:53.366Z,29.90
2018-06-28T11:32:45.887Z,29.70
2018-06-28T11:34:56.165Z,30.00
2018-06-28T11:37:05.268Z,30.40
2018-06-28T11:39:12.591Z,30.20
2018-06-28T11:41:17.858Z,30.00
2018-06-28T11:43:25.632Z,30.00
2018-06-28T11:45:29.789Z,30.30
2018-06-28T11:47:40.688Z,30.40
2018-06-28T11:49:45.322Z,30.10
2018-06-28T11:51:49.502Z,29.90
2018-06-28T11:53:54.594Z,29.80
2018-06-28T11:55:58.637Z,29.80
2018-06-28T11:58:04.333Z,30.00
2018-06-28T12:00:15.157Z,30.30
2018-06-28T12:02:19.763Z,30.40
2018-06-28T12:04:24.538Z,30.10
2018-06-28T12:06:29.723Z,29.70
2018-06-28T12:08:36.470Z,29.50
2018-06-28T12:10:42.838Z,29.30
2018-06-28T12:12:47.449Z,29.40
2018-06-28T12:14:51.612Z,29.60
2018-06-28T12:16:57.088Z,29.50
2018-06-28T12:19:02.346Z,29.50
2018-06-28T12:21:06.332Z,29.50
2018-06-28T12:23:10.415Z,29.80
2018-06-28T12:25:15.648Z,30.00
2018-06-28T12:27:25.160Z,29.90
2018-06-28T12:29:33.059Z,29.90
2018-06-28T12:31:39.236Z,29.60
2018-06-28T12:33:44.231Z,29.50
2018-06-28T12:37:59.091Z,29.30
2018-06-28T12:40:03.105Z,29.40
2018-06-28T12:42:09.437Z,29.70
2018-06-28T12:44:18.123Z,30.10
2018-06-28T12:46:32.651Z,30.20
2018-06-28T12:48:37.863Z,30.50
2018-06-28T12:50:50.304Z,30.60
2018-06-28T12:55:17.182Z,30.40
2018-06-28T12:57:21.835Z,30.40
2018-06-28T12:59:27.280Z,30.40
2018-06-28T13:01:32.385Z,30.40
2018-06-28T13:03:37.371Z,30.70
2018-06-28T13:05:42.377Z,31.00
2018-06-28T13:07:48.388Z,31.10
2018-06-28T13:09:52.536Z,31.30
2018-06-28T13:11:57.192Z,31.50
2018-06-28T13:14:02.491Z,31.70
2018-06-28T13:16:12.941Z,32.00
2018-06-28T13:18:48.985Z,32.20
2018-06-28T13:20:53.894Z,32.10
2018-06-28T13:22:58.823Z,32.40
2018-06-28T13:25:07.566Z,32.30
2018-06-28T13:27:13.188Z,32.20
2018-06-28T13:29:17.445Z,32.40
2018-06-28T13:31:23.107Z,32.70
2018-06-28T13:33:28.787Z,32.70
2018-06-28T13:35:33.000Z,32.70
2018-06-28T13:37:37.295Z,32.70
2018-06-28T13:39:45.264Z,32.60
2018-06-28T13:44:03.044Z,32.60
2018-06-28T13:46:07.598Z,32.70
2018-06-28T13:48:12.308Z,32.50
2018-06-28T13:52:31.507Z,32.50
2018-06-28T13:54:39.675Z,32.90
2018-06-28T14:00:01.009Z,33.10
2018-06-28T14:02:09.082Z,33.40
2018-06-28T14:04:18.773Z,33.70
2018-06-28T14:06:29.231Z,33.70
2018-06-28T14:08:41.282Z,33.20
2018-06-28T14:10:45.610Z,33.40
2018-06-28T14:12:52.612Z,33.60
2018-06-28T14:15:00.297Z,33.60
2018-06-28T14:17:15.865Z,33.40
2018-06-28T14:19:29.441Z,32.90
2018-06-28T14:21:36.231Z,32.60
2018-06-28T14:23:45.151Z,32.10
2018-06-28T14:25:53.806Z,31.70
2018-06-28T14:28:04.327Z,31.30
2018-06-28T14:30:13.420Z,30.90
2018-06-28T14:32:24.340Z,30.70
2018-06-28T14:34:31.507Z,30.70
2018-06-28T14:36:36.612Z,30.70
2018-06-28T14:38:42.600Z,30.70
2018-06-28T14:40:48.450Z,30.50
2018-06-28T14:42:58.526Z,30.20
2018-06-28T14:45:04.648Z,30.10
2018-06-28T14:47:14.682Z,29.80
2018-06-28T14:49:20.362Z,29.90
2018-06-28T14:51:27.173Z,29.80
2018-06-28T14:53:32.219Z,29.70
2018-06-28T14:55:36.232Z,29.60
2018-06-28T14:57:49.508Z,29.60
2018-06-28T15:00:01.073Z,29.60
2018-06-28T15:02:05.451Z,29.50
2018-06-28T15:04:10.384Z,29.30
2018-06-28T15:06:15.771Z,29.20
2018-06-28T15:08:25.240Z,29.30
2018-06-28T15:10:30.186Z,29.40
2018-06-28T15:12:36.074Z,29.50
2018-06-28T15:14:40.765Z,29.40
2018-06-28T15:16:44.782Z,29.40
2018-06-28T15:18:56.493Z,29.50
2018-06-28T15:21:01.675Z,29.50
2018-06-28T15:23:08.625Z,29.60
2018-06-28T15:25:17.174Z,29.70
2018-06-28T15:27:21.879Z,29.70
2018-06-28T15:29:27.228Z,29.70
2018-06-28T15:31:48.371Z,29.90
2018-06-28T15:33:56.402Z,30.20
2018-06-28T15:36:15.810Z,30.60
2018-06-28T15:38:20.390Z,31.00
2018-06-28T15:40:24.335Z,31.20
2018-06-28T15:42:32.757Z,31.60
2018-06-28T15:44:37.041Z,31.80
2018-06-28T15:46:41.352Z,31.90
2018-06-28T15:48:47.362Z,31.80
2018-06-28T15:50:54.418Z,31.60
2018-06-28T15:53:01.341Z,31.60
2018-06-28T15:55:05.836Z,31.90
2018-06-28T15:57:14.446Z,32.20
2018-06-28T15:59:22.721Z,32.50
2018-06-28T16:01:27.259Z,32.80
2018-06-28T16:03:35.800Z,32.50
2018-06-28T16:05:42.032Z,31.90
2018-06-28T16:07:48.844Z,31.40
2018-06-28T16:09:55.058Z,31.10
2018-06-28T16:12:00.147Z,30.70
2018-06-28T16:14:09.343Z,30.40
2018-06-28T16:16:17.759Z,30.10
2018-06-28T16:18:22.304Z,29.80
2018-06-28T16:20:28.607Z,29.70
2018-06-28T16:22:33.597Z,29.40
2018-06-28T16:24:37.727Z,29.30
2018-06-28T16:26:43.407Z,29.30
2018-06-28T16:28:57.759Z,29.30
2018-06-28T16:31:02.449Z,29.10
2018-06-28T16:33:07.368Z,29.00
2018-06-28T16:35:13.559Z,28.80
2018-06-28T16:37:18.127Z,28.70
2018-06-28T16:39:23.390Z,28.80
2018-06-28T16:41:32.188Z,29.50
2018-06-28T16:43:37.796Z,30.30
2018-06-28T16:45:42.903Z,31.00
2018-06-28T16:47:50.730Z,31.40
2018-06-28T16:49:56.219Z,31.70
2018-06-28T16:52:01.876Z,31.80
2018-06-28T16:56:10.688Z,32.10
2018-06-28T16:58:15.942Z,32.00
2018-06-28T17:00:22.624Z,32.00
2018-06-28T17:02:31.205Z,32.10
2018-06-28T17:04:36.602Z,32.00
2018-06-28T17:06:45.550Z,31.90
2018-06-28T17:08:51.810Z,31.80
2018-06-28T17:10:58.130Z,31.60
2018-06-28T17:13:06.482Z,31.50
2018-06-28T17:15:13.419Z,31.10
2018-06-28T17:17:20.507Z,31.00
2018-06-28T17:19:26.223Z,30.90
2018-06-28T17:23:37.350Z,30.80
2018-06-28T17:25:43.786Z,30.70
2018-06-28T17:27:47.777Z,30.70
2018-06-28T17:29:52.204Z,30.90
2018-06-28T17:31:58.221Z,30.80
2018-06-28T17:34:08.600Z,30.70
2018-06-28T17:36:13.308Z,30.50
2018-06-28T17:38:18.508Z,29.90
2018-06-28T17:40:24.305Z,29.40
2018-06-28T17:44:35.106Z,28.70
2018-06-28T17:46:47.104Z,28.70
2018-06-28T17:49:06.625Z,28.60
2018-06-28T17:51:14.685Z,28.40
2018-06-28T17:53:19.277Z,28.40
2018-06-28T17:55:28.843Z,28.20
2018-06-28T17:57:36.670Z,28.20
2018-06-28T17:59:41.992Z,28.20
2018-06-28T18:01:49.396Z,28.20
2018-06-28T18:03:55.783Z,28.20
2018-06-28T18:06:08.277Z,28.20
2018-06-28T18:08:14.820Z,28.20
2018-06-28T18:10:27.556Z,28.10
2018-06-28T18:12:34.338Z,28.00
2018-06-28T18:14:40.508Z,27.90
2018-06-28T18:16:47.021Z,27.90
2018-06-28T18:18:51.179Z,27.90
2018-06-28T18:20:59.450Z,27.80
2018-06-28T18:23:04.645Z,27.80
2018-06-28T18:25:13.063Z,27.70
2018-06-28T18:27:18.487Z,27.60
2018-06-28T18:29:26.054Z,27.60
2018-06-28T18:31:31.773Z,27.60
2018-06-28T18:33:39.067Z,27.50
2018-06-28T18:35:45.022Z,27.50
2018-06-28T18:37:51.565Z,27.40
2018-06-28T18:39:58.301Z,27.30
2018-06-28T18:42:04.672Z,27.20
2018-06-28T18:44:13.095Z,27.20
2018-06-28T18:46:20.990Z,27.10
2018-06-28T18:48:30.322Z,27.00
2018-06-28T18:50:35.087Z,27.10
2018-06-28T18:52:40.464Z,27.10
2018-06-28T18:54:46.868Z,27.00
2018-06-28T18:56:53.417Z,27.00
2018-06-28T18:59:12.680Z,27.10
2018-06-28T19:01:23.971Z,27.00
2018-06-28T19:03:33.628Z,26.90
2018-06-28T19:05:40.307Z,26.90
2018-06-28T19:07:48.272Z,26.90
2018-06-28T19:09:58.616Z,26.90
2018-06-28T19:12:06.721Z,26.90
2018-06-28T19:14:18.795Z,26.80
2018-06-28T19:16:32.901Z,26.70
2018-06-28T19:18:38.822Z,26.70
2018-06-28T19:20:51.079Z,26.70
2018-06-28T19:23:04.393Z,26.60
2018-06-28T19:25:13.643Z,26.70
2018-06-28T19:27:21.077Z,26.60
2018-06-28T19:29:31.065Z,26.60
2018-06-28T19:31:40.343Z,26.60
2018-06-28T19:33:45.556Z,26.70
2018-06-28T19:38:01.232Z,26.60
2018-06-28T19:40:13.130Z,26.60
2018-06-28T19:42:23.121Z,26.70
2018-06-28T19:44:31.088Z,26.80
2018-06-28T19:46:35.313Z,26.70
2018-06-28T19:48:41.396Z,26.70
2018-06-28T19:50:52.545Z,26.60
2018-06-28T19:53:00.473Z,26.60
2018-06-28T19:55:08.236Z,26.70
2018-06-28T19:57:16.444Z,26.70
2018-06-28T19:59:20.930Z,26.70
2018-06-28T20:01:34.383Z,26.70
2018-06-28T20:03:44.663Z,26.60
2018-06-28T20:05:49.241Z,26.60
2018-06-28T20:07:55.494Z,26.60
2018-06-28T20:10:04.845Z,26.60
2018-06-28T20:12:21.473Z,26.60
2018-06-28T20:14:32.309Z,26.50
2018-06-28T20:16:42.859Z,26.40
2018-06-28T20:18:53.929Z,26.40
2018-06-28T20:21:02.754Z,26.50
2018-06-28T20:23:10.808Z,26.50
2018-06-28T20:25:16.790Z,26.40
2018-06-28T20:27:28.230Z,26.40
2018-06-28T20:29:39.856Z,26.40
2018-06-28T20:31:57.157Z,26.50
2018-06-28T20:34:11.339Z,26.50
2018-06-28T20:36:22.250Z,26.50
2018-06-28T20:38:27.868Z,26.50
2018-06-28T20:40:38.393Z,26.70
2018-06-28T20:42:46.483Z,26.70
2018-06-28T20:45:00.804Z,26.70
2018-06-28T20:47:07.132Z,26.70
2018-06-28T20:49:16.996Z,26.70
2018-06-28T20:51:21.926Z,26.90
2018-06-28T20:53:30.211Z,26.80
2018-06-28T20:55:36.744Z,26.70
2018-06-28T20:57:43.855Z,26.70
2018-06-28T20:59:48.947Z,26.60
2018-06-28T21:02:00.565Z,26.60
2018-06-28T21:04:06.601Z,26.50
2018-06-28T21:06:16.323Z,26.40
2018-06-28T21:08:20.653Z,26.30
2018-06-28T21:10:26.616Z,26.20
2018-06-28T21:12:35.199Z,26.20
2018-06-28T21:14:41.948Z,26.20
2018-06-28T21:16:48.598Z,26.20
2018-06-28T21:18:53.238Z,26.30
2018-06-28T21:21:08.470Z,26.30
2018-06-28T21:23:20.671Z,26.50
2018-06-28T21:25:30.369Z,26.70
2018-06-28T21:27:36.283Z,26.70
2018-06-28T21:29:43.244Z,26.70
2018-06-28T21:31:56.826Z,26.70
2018-06-28T21:34:01.697Z,26.70
2018-06-28T21:36:10.695Z,26.70
2018-06-28T21:40:25.856Z,26.60
2018-06-28T21:42:30.849Z,26.60
2018-06-28T21:44:34.920Z,26.70
2018-06-28T21:46:42.769Z,26.70
2018-06-28T21:48:48.287Z,26.70
2018-06-28T21:50:53.413Z,26.60
2018-06-28T21:53:01.021Z,26.60
2018-06-28T21:55:08.716Z,26.60
2018-06-28T21:59:19.694Z,26.60
2018-06-28T22:01:27.788Z,26.70
2018-06-28T22:03:32.986Z,26.70
2018-06-28T22:05:39.694Z,26.70
2018-06-28T22:07:44.661Z,26.70
2018-06-28T22:09:50.453Z,26.80
2018-06-28T22:11:55.074Z,26.80
2018-06-28T22:14:01.311Z,26.70
2018-06-28T22:16:06.294Z,26.70
2018-06-28T22:18:12.432Z,26.70
2018-06-28T22:20:18.515Z,26.70
2018-06-28T22:22:25.912Z,26.70
2018-06-28T22:24:31.161Z,26.80
2018-06-28T22:28:39.935Z,26.80
2018-06-28T22:30:45.776Z,26.80
2018-06-28T22:32:50.358Z,26.80
2018-06-28T22:34:57.019Z,26.80
2018-06-28T22:37:01.887Z,26.70
2018-06-28T22:39:12.099Z,26.70
2018-06-28T22:41:17.688Z,26.70
2018-06-28T22:43:25.224Z,26.60
2018-06-28T22:45:34.376Z,26.50
2018-06-28T22:49:53.765Z,26.50
2018-06-28T22:52:00.664Z,26.40
2018-06-28T22:54:07.748Z,26.50
2018-06-28T22:56:14.393Z,26.50
2018-06-28T22:58:18.608Z,26.50
2018-06-28T23:00:30.490Z,26.50
2018-06-28T23:02:42.344Z,26.50
2018-06-28T23:04:46.491Z,26.50
2018-06-28T23:06:51.892Z,26.50
2018-06-28T23:08:56.781Z,26.50
2018-06-28T23:11:00.673Z,26.50
2018-06-28T23:13:13.765Z,26.60
2018-06-28T23:15:18.715Z,26.50
2018-06-28T23:17:22.664Z,26.30
2018-06-28T23:19:28.602Z,26.30
2018-06-28T23:21:33.777Z,26.40
2018-06-28T23:23:39.904Z,26.40
2018-06-28T23:25:47.748Z,26.20
2018-06-28T23:27:53.367Z,26.30
2018-06-28T23:29:59.352Z,26.20
2018-06-28T23:32:05.880Z,26.20
2018-06-28T23:34:10.460Z,26.20
2018-06-28T23:36:14.670Z,26.20
2018-06-28T23:38:20.045Z,26.10
2018-06-28T23:40:25.964Z,26.00
2018-06-28T23:42:47.403Z,25.80
2018-06-28T23:44:52.382Z,25.60
2018-06-28T23:46:56.508Z,25.30
2018-06-28T23:49:00.614Z,25.30
2018-06-28T23:51:11.535Z,25.30
2018-06-28T23:53:15.762Z,25.30
2018-06-28T23:55:19.746Z,25.10
2018-06-28T23:57:27.072Z,25.00
2018-06-28T23:59:30.988Z,25.00
